Time;durP1;ratioP1;P1;durP2;ratioP2;P2;SDS_P1;SDS_P2;PMS_P1;PMS_P2;Temp;Humidity;BMP_temperature;BMP_pressure;BME280_temperature;BME280_humidity;BME280_pressure;Samples;Min_cycle;Max_cycle;Signal;HPM_P1;HPM_P2
2023/06/18 00:01:52;;;;;;;0.90;0.90;;;;;;;23.50;37.65;100724.28;5236516;28;20075;-80
2023/06/18 00:04:43;;;;;;;3.53;1.45;;;;;;;23.44;37.56;100727.47;5253606;28;20032;-81
2023/06/18 00:07:34;;;;;;;0.30;0.30;;;;;;;23.46;37.51;100729.03;5245897;28;20048;-81
2023/06/18 00:10:25;;;;;;;0.90;0.82;;;;;;;23.46;37.78;100722.84;5257019;28;20032;-81
2023/06/18 00:13:16;;;;;;;0.43;0.43;;;;;;;23.44;37.68;100720.28;5241841;28;20078;-80
2023/06/18 00:16:06;;;;;;;2.28;1.45;;;;;;;23.38;37.46;100721.66;5245239;28;20072;-81
2023/06/18 00:18:57;;;;;;;0.38;0.38;;;;;;;23.36;38.24;100717.38;5242522;28;20174;-81
2023/06/18 00:21:48;;;;;;;1.20;1.10;;;;;;;23.33;37.55;100723.00;5254043;28;20043;-80
2023/06/18 00:24:39;;;;;;;2.72;1.50;;;;;;;23.33;37.90;100728.34;5253858;28;20024;-80
2023/06/18 00:27:30;;;;;;;0.80;0.80;;;;;;;23.32;38.02;100723.97;5232944;28;20043;-81
2023/06/18 00:30:21;;;;;;;0.73;0.73;;;;;;;23.31;38.49;100727.63;5243533;28;20075;-82
2023/06/18 00:33:12;;;;;;;1.35;1.25;;;;;;;23.26;38.34;100714.59;5242021;28;20046;-80
2023/06/18 00:36:07;;;;;;;1.17;1.02;;;;;;;23.31;38.38;100717.75;5253428;28;20052;-81
2023/06/18 00:38:58;;;;;;;0.38;0.38;;;;;;;23.29;38.45;100718.84;5258628;28;20550;-81
2023/06/18 00:41:49;;;;;;;0.70;0.65;;;;;;;23.25;37.98;100716.44;5239263;28;20544;-80
2023/06/18 00:44:42;;;;;;;0.60;0.60;;;;;;;23.24;38.29;100716.56;5234980;28;20032;-80
2023/06/18 00:47:33;;;;;;;0.52;0.52;;;;;;;23.19;38.30;100692.84;5244507;28;20044;-82
2023/06/18 00:50:26;;;;;;;0.70;0.70;;;;;;;23.12;38.52;100704.97;5253905;28;20032;-80
2023/06/18 00:53:17;;;;;;;16.98;1.77;;;;;;;23.10;38.41;100698.91;5249996;28;20127;-80
2023/06/18 00:56:09;;;;;;;0.85;0.85;;;;;;;23.04;38.13;100702.06;5239646;28;20060;-80
2023/06/18 00:59:00;;;;;;;1.17;0.95;;;;;;;23.08;38.47;100698.19;5252624;28;20059;-81
2023/06/18 01:01:53;;;;;;;0.50;0.50;;;;;;;23.04;38.86;100697.59;5225155;28;20037;-79
2023/06/18 01:04:45;;;;;;;0.82;0.82;;;;;;;23.03;38.39;100701.22;5246710;28;20677;-80
2023/06/18 01:07:39;;;;;;;2.60;1.40;;;;;;;23.00;38.38;100696.13;5228247;28;20040;-80
2023/06/18 01:10:29;;;;;;;0.75;0.75;;;;;;;22.94;38.86;100693.94;5241257;28;20036;-80
2023/06/18 01:13:20;;;;;;;1.85;1.25;;;;;;;22.91;38.90;100695.03;5254754;28;20028;-80
2023/06/18 01:16:13;;;;;;;1.27;1.10;;;;;;;22.91;39.26;100702.19;5239847;28;20048;-80
2023/06/18 01:19:05;;;;;;;0.55;0.55;;;;;;;22.85;38.98;100702.69;5236905;28;20128;-81
2023/06/18 01:22:04;;;;;;;0.98;0.80;;;;;;;22.83;39.32;100705.50;5249028;28;20110;-82
2023/06/18 01:25:02;;;;;;;0.85;0.85;;;;;;;22.79;39.38;100699.53;5253933;28;20109;-82
2023/06/18 01:27:53;;;;;;;0.63;0.63;;;;;;;22.76;39.50;100699.78;5254822;28;20044;-81
2023/06/18 01:30:44;;;;;;;0.43;0.43;;;;;;;22.74;39.76;100703.56;5221535;28;20043;-81
2023/06/18 01:33:36;;;;;;;0.88;0.68;;;;;;;22.68;39.03;100701.38;5251799;28;20031;-81
2023/06/18 01:36:47;;;;;;;1.00;1.00;;;;;;;22.63;39.71;100691.88;5238314;28;20063;-81
2023/06/18 01:39:53;;;;;;;1.05;0.95;;;;;;;22.65;39.78;100694.41;5231505;28;20060;-81
2023/06/18 01:43:09;;;;;;;1.77;1.63;;;;;;;22.57;39.88;100700.38;5242446;28;20043;-80
2023/06/18 01:46:03;;;;;;;0.90;0.73;;;;;;;22.54;40.03;100697.94;5239668;28;20689;-79
2023/06/18 01:48:59;;;;;;;2.25;1.08;;;;;;;22.48;39.98;100688.56;5242038;28;20485;-82
2023/06/18 01:51:52;;;;;;;1.02;1.02;;;;;;;22.44;40.02;100694.28;5238750;28;20043;-81
2023/06/18 01:54:49;;;;;;;1.25;1.15;;;;;;;22.43;40.49;100690.75;5250582;28;20028;-81
2023/06/18 01:57:40;;;;;;;0.68;0.68;;;;;;;22.42;40.76;100697.06;5250050;28;20607;-80
2023/06/18 02:00:31;;;;;;;0.55;0.55;;;;;;;22.36;40.37;100693.97;5233836;28;20606;-80
2023/06/18 02:03:22;;;;;;;1.27;0.70;;;;;;;22.33;40.41;100693.28;5222062;28;20035;-80
2023/06/18 02:06:13;;;;;;;1.42;0.80;;;;;;;22.30;40.39;100693.50;5234581;28;20047;-81
2023/06/18 02:09:04;;;;;;;0.85;0.63;;;;;;;22.23;40.35;100686.09;5252534;28;20036;-80
2023/06/18 02:11:55;;;;;;;0.80;0.80;;;;;;;22.21;40.86;100683.50;5226124;28;20601;-82
2023/06/18 02:14:46;;;;;;;0.65;0.60;;;;;;;22.14;40.33;100687.63;5236729;28;20029;-81
2023/06/18 02:17:36;;;;;;;0.98;0.95;;;;;;;22.11;40.96;100678.03;5237074;28;20044;-81
2023/06/18 02:20:27;;;;;;;0.65;0.65;;;;;;;22.03;40.58;100675.09;5221580;28;20037;-81
2023/06/18 02:23:18;;;;;;;2.58;1.35;;;;;;;22.00;40.40;100678.88;5222779;28;20024;-81
2023/06/18 02:26:09;;;;;;;0.80;0.80;;;;;;;21.90;40.61;100666.34;5235027;28;20142;-80
2023/06/18 02:29:00;;;;;;;0.57;0.57;;;;;;;21.93;40.45;100672.28;5253128;28;20348;-80
2023/06/18 02:31:51;;;;;;;0.77;0.77;;;;;;;21.89;40.80;100673.47;5243985;28;20036;-82
2023/06/18 02:34:41;;;;;;;1.27;1.10;;;;;;;21.89;40.93;100670.81;5245990;28;20025;-82
2023/06/18 02:37:32;;;;;;;2.50;0.85;;;;;;;21.83;40.63;100671.28;5256412;28;20119;-82
2023/06/18 02:40:23;;;;;;;0.70;0.70;;;;;;;21.78;40.78;100663.63;5258421;28;20155;-79
2023/06/18 02:43:14;;;;;;;1.15;1.05;;;;;;;21.78;41.67;100671.63;5249386;28;20089;-78
2023/06/18 02:46:05;;;;;;;0.70;0.60;;;;;;;21.71;40.99;100670.38;5247025;28;20044;-78
2023/06/18 02:48:55;;;;;;;1.38;1.27;;;;;;;21.65;41.16;100665.50;5234226;28;20769;-80
2023/06/18 02:51:47;;;;;;;2.22;1.65;;;;;;;21.61;41.43;100659.53;5240924;28;20088;-82
2023/06/18 02:54:38;;;;;;;1.65;0.73;;;;;;;21.60;41.67;100657.84;5233350;28;20032;-81
2023/06/18 02:57:29;;;;;;;1.00;0.90;;;;;;;21.51;41.48;100654.00;5217712;28;20650;-80
2023/06/18 03:00:21;;;;;;;0.60;0.60;;;;;;;21.47;41.50;100657.00;5236659;28;20028;-79
2023/06/18 03:03:14;;;;;;;0.22;0.22;;;;;;;21.45;41.38;100661.59;5237502;28;20044;-81
2023/06/18 03:06:05;;;;;;;0.60;0.50;;;;;;;21.39;41.96;100654.91;5240801;28;20110;-81
2023/06/18 03:08:56;;;;;;;0.40;0.40;;;;;;;21.37;41.90;100662.19;5248741;28;20594;-82
2023/06/18 03:11:47;;;;;;;1.92;0.93;;;;;;;21.36;42.23;100663.97;5250103;28;20044;-82
2023/06/18 03:14:37;;;;;;;0.82;0.80;;;;;;;21.34;42.21;100657.94;5250559;28;20049;-80
2023/06/18 03:17:28;;;;;;;0.43;0.43;;;;;;;21.31;42.29;100660.81;5234899;28;20454;-82
2023/06/18 03:20:19;;;;;;;0.57;0.57;;;;;;;21.29;42.20;100670.72;5224064;28;20029;-81
2023/06/18 03:23:10;;;;;;;1.27;0.57;;;;;;;21.26;42.47;100675.44;5255886;28;20035;-81
2023/06/18 03:26:00;;;;;;;0.70;0.70;;;;;;;21.18;42.54;100676.03;5226160;28;20039;-80
2023/06/18 03:28:51;;;;;;;0.80;0.60;;;;;;;21.16;42.63;100676.13;5225696;28;20065;-79
2023/06/18 03:31:44;;;;;;;1.85;0.70;;;;;;;21.14;42.98;100677.19;5238139;28;20900;-80
2023/06/18 03:34:35;;;;;;;0.50;0.50;;;;;;;21.15;42.94;100674.44;5222930;28;20089;-79
2023/06/18 03:37:27;;;;;;;0.77;0.77;;;;;;;21.14;42.83;100670.06;5239170;28;20040;-81
2023/06/18 03:40:18;;;;;;;0.98;0.73;;;;;;;21.08;42.95;100673.16;5238273;28;20103;-80
2023/06/18 03:43:09;;;;;;;2.58;1.00;;;;;;;21.05;43.14;100671.56;5235542;28;20038;-81
2023/06/18 03:46:00;;;;;;;0.68;0.68;;;;;;;21.05;43.08;100678.72;5241944;28;20035;-81
2023/06/18 03:48:51;;;;;;;1.05;1.00;;;;;;;21.02;43.16;100678.94;5236499;28;20502;-82
2023/06/18 03:51:42;;;;;;;1.50;1.05;;;;;;;20.97;43.43;100671.25;5235628;28;20059;-80
2023/06/18 03:54:32;;;;;;;1.02;0.95;;;;;;;20.98;43.71;100680.13;5244637;28;20043;-79
2023/06/18 03:57:23;;;;;;;1.30;1.20;;;;;;;20.96;43.62;100677.56;5241827;28;20048;-80
2023/06/18 04:00:15;;;;;;;0.70;0.70;;;;;;;20.95;43.63;100678.50;5245452;28;20210;-79
2023/06/18 04:03:06;;;;;;;1.25;0.95;;;;;;;20.94;43.77;100690.16;5249662;28;20518;-80
2023/06/18 04:05:57;;;;;;;1.08;0.77;;;;;;;20.91;43.42;100693.88;5231767;28;20040;-79
2023/06/18 04:08:48;;;;;;;2.78;1.05;;;;;;;20.88;43.72;100688.78;5220726;28;20120;-80
2023/06/18 04:11:39;;;;;;;1.38;1.13;;;;;;;20.89;44.18;100693.16;5219421;28;20071;-79
2023/06/18 04:14:29;;;;;;;0.55;0.55;;;;;;;20.88;43.91;100694.13;5249040;28;20440;-80
2023/06/18 04:17:20;;;;;;;0.80;0.55;;;;;;;20.86;43.89;100696.03;5240602;28;20643;-81
2023/06/18 04:20:12;;;;;;;0.45;0.45;;;;;;;20.87;44.10;100689.75;5234128;28;20040;-81
2023/06/18 04:23:02;;;;;;;0.50;0.50;;;;;;;20.80;43.98;100684.94;5240200;28;20032;-82
2023/06/18 04:25:53;;;;;;;1.63;1.08;;;;;;;20.84;43.89;100689.94;5226004;28;20055;-80
2023/06/18 04:28:44;;;;;;;0.85;0.85;;;;;;;20.81;43.82;100691.97;5239020;28;20028;-81
2023/06/18 04:31:35;;;;;;;1.25;1.15;;;;;;;20.77;44.52;100686.03;5240001;28;20039;-81
2023/06/18 04:34:26;;;;;;;0.70;0.70;;;;;;;20.67;44.73;100683.13;5232849;28;20644;-80
2023/06/18 04:37:17;;;;;;;0.70;0.70;;;;;;;20.75;43.91;100683.47;5238965;28;20040;-80
2023/06/18 04:40:08;;;;;;;4.53;2.15;;;;;;;20.78;44.21;100684.22;5224245;28;20021;-81
2023/06/18 04:42:59;;;;;;;0.45;0.45;;;;;;;20.65;44.41;100681.53;5254881;28;20039;-82
2023/06/18 04:45:51;;;;;;;1.33;1.23;;;;;;;20.64;44.04;100680.66;5235867;28;20046;-81
2023/06/18 04:48:42;;;;;;;1.13;0.90;;;;;;;20.55;45.46;100679.50;5238309;28;20097;-80
2023/06/18 04:51:33;;;;;;;0.68;0.68;;;;;;;20.54;44.94;100691.13;5251353;28;20039;-82
2023/06/18 04:54:24;;;;;;;0.85;0.85;;;;;;;20.56;44.78;100691.00;5239595;28;20105;-80
2023/06/18 04:57:16;;;;;;;1.17;1.08;;;;;;;20.69;43.73;100691.00;5241520;28;20039;-80
2023/06/18 05:00:08;;;;;;;1.38;1.20;;;;;;;20.74;43.75;100692.44;5251077;28;20427;-80
2023/06/18 05:03:00;;;;;;;7.93;2.63;;;;;;;20.79;43.58;100693.91;5229289;28;20056;-82
2023/06/18 05:05:51;;;;;;;1.85;1.17;;;;;;;20.80;43.36;100691.16;5249361;28;20359;-79
2023/06/18 05:08:42;;;;;;;0.57;0.57;;;;;;;20.83;43.14;100690.06;5250110;28;20024;-80
2023/06/18 05:11:32;;;;;;;0.90;0.88;;;;;;;20.85;43.45;100694.31;5237064;28;20594;-80
2023/06/18 05:14:23;;;;;;;0.40;0.40;;;;;;;20.84;43.72;100689.09;5231910;28;20055;-80
2023/06/18 05:17:14;;;;;;;0.90;0.90;;;;;;;20.89;43.07;100689.63;5246531;28;20028;-81
2023/06/18 05:20:05;;;;;;;0.45;0.45;;;;;;;20.93;43.29;100685.78;5237863;28;20034;-81
2023/06/18 05:22:56;;;;;;;0.95;0.90;;;;;;;20.96;43.21;100690.06;5236287;28;20131;-81
2023/06/18 05:25:47;;;;;;;0.85;0.73;;;;;;;20.85;44.13;100696.16;5220261;28;20051;-81
2023/06/18 05:28:38;;;;;;;0.73;0.73;;;;;;;20.72;44.77;100698.78;5248865;28;20104;-81
2023/06/18 05:31:29;;;;;;;0.80;0.68;;;;;;;20.87;43.55;100704.88;5239215;28;20044;-82
2023/06/18 05:34:20;;;;;;;1.50;1.13;;;;;;;20.96;43.53;100700.72;5256065;28;20055;-84
2023/06/18 05:37:11;;;;;;;0.80;0.80;;;;;;;21.03;43.16;100710.81;5234742;28;20060;-83
2023/06/18 05:40:02;;;;;;;2.47;1.70;;;;;;;21.05;43.48;100700.06;5235409;28;20029;-81
2023/06/18 05:42:53;;;;;;;0.45;0.45;;;;;;;21.10;43.07;100713.06;5265863;28;20028;-81
2023/06/18 05:45:44;;;;;;;1.73;0.93;;;;;;;21.13;42.81;100712.84;5250970;28;20048;-83
2023/06/18 05:48:35;;;;;;;1.02;1.02;;;;;;;21.14;43.62;100703.88;5255475;28;20044;-81
2023/06/18 05:51:26;;;;;;;0.70;0.70;;;;;;;21.19;43.19;100701.75;5230059;28;20028;-81
2023/06/18 05:54:16;;;;;;;1.80;1.05;;;;;;;21.18;43.46;100708.88;5242547;28;20024;-80
2023/06/18 05:57:07;;;;;;;1.33;1.23;;;;;;;21.27;43.60;100715.38;5241616;28;20059;-82
2023/06/18 05:59:58;;;;;;;1.00;0.60;;;;;;;21.31;43.11;100713.34;5236466;28;20677;-84
2023/06/18 06:02:49;;;;;;;0.65;0.65;;;;;;;21.32;43.35;100717.72;5254226;28;20036;-83
2023/06/18 06:05:40;;;;;;;0.47;0.47;;;;;;;21.37;43.55;100720.88;5256007;28;20049;-81
2023/06/18 06:08:31;;;;;;;1.27;1.05;;;;;;;21.44;43.17;100713.31;5260830;28;20035;-81
2023/06/18 06:11:22;;;;;;;0.77;0.75;;;;;;;21.26;44.79;100711.00;5241813;28;20039;-81
2023/06/18 06:14:13;;;;;;;0.70;0.65;;;;;;;21.35;44.82;100715.69;5242819;28;20028;-84
2023/06/18 06:17:04;;;;;;;0.88;0.82;;;;;;;21.43;43.54;100719.59;5226858;28;20036;-82
2023/06/18 06:19:55;;;;;;;0.70;0.70;;;;;;;21.37;44.69;100719.06;5257824;28;20032;-83
2023/06/18 06:22:45;;;;;;;1.30;1.20;;;;;;;21.45;43.60;100712.31;5252507;28;20076;-82
2023/06/18 06:25:36;;;;;;;0.77;0.77;;;;;;;21.58;43.38;100714.97;5253686;28;20744;-81
2023/06/18 06:28:27;;;;;;;0.77;0.77;;;;;;;21.62;43.66;100719.13;5250022;28;20024;-80
2023/06/18 06:31:18;;;;;;;0.50;0.50;;;;;;;21.68;43.41;100722.19;5243384;28;20310;-80
2023/06/18 06:34:08;;;;;;;0.50;0.50;;;;;;;21.65;44.17;100716.25;5257225;28;20071;-80
2023/06/18 06:36:59;;;;;;;0.60;0.60;;;;;;;21.72;43.70;100712.16;5265220;28;20037;-81
2023/06/18 06:39:50;;;;;;;0.52;0.52;;;;;;;21.80;44.21;100719.56;5270421;28;20017;-81
2023/06/18 06:42:41;;;;;;;0.73;0.60;;;;;;;21.84;43.68;100718.38;5268279;28;20028;-80
2023/06/18 06:45:32;;;;;;;1.77;0.47;;;;;;;21.88;43.47;100716.34;5268058;28;20234;-80
2023/06/18 06:48:22;;;;;;;0.60;0.60;;;;;;;21.92;43.77;100715.13;5269326;28;20032;-81
2023/06/18 06:51:13;;;;;;;2.28;1.13;;;;;;;21.96;43.73;100717.44;5243163;28;20044;-80
2023/06/18 06:54:05;;;;;;;2.92;1.33;;;;;;;22.08;43.52;100723.69;5227642;28;20055;-80
2023/06/18 06:56:56;;;;;;;0.57;0.32;;;;;;;22.13;43.48;100723.34;5221097;28;20152;-82
2023/06/18 06:59:47;;;;;;;0.77;0.77;;;;;;;22.25;43.02;100727.75;5236920;28;20028;-79
2023/06/18 07:02:38;;;;;;;0.50;0.50;;;;;;;22.24;42.98;100726.06;5244246;28;20069;-79
2023/06/18 07:05:30;;;;;;;1.48;1.38;;;;;;;22.37;43.33;100730.44;5257116;28;20123;-79
2023/06/18 07:08:21;;;;;;;0.80;0.80;;;;;;;22.44;42.71;100732.56;5258191;28;20028;-80
2023/06/18 07:11:12;;;;;;;0.65;0.65;;;;;;;22.51;42.91;100727.59;5237712;28;20044;-79
2023/06/18 07:14:03;;;;;;;2.60;1.00;;;;;;;22.60;42.72;100726.88;5239954;28;20183;-78
2023/06/18 07:16:54;;;;;;;0.85;0.60;;;;;;;22.64;42.55;100732.84;5235956;28;20561;-79
2023/06/18 07:19:45;;;;;;;0.77;0.77;;;;;;;22.58;43.39;100728.81;5243631;28;20055;-79
2023/06/18 07:22:36;;;;;;;1.02;0.80;;;;;;;22.71;42.67;100731.41;5239782;28;20046;-79
2023/06/18 07:25:27;;;;;;;0.75;0.75;;;;;;;22.76;43.24;100731.03;5236388;28;20036;-79
2023/06/18 07:28:18;;;;;;;0.50;0.47;;;;;;;22.86;42.87;100723.97;5252340;28;20028;-80
2023/06/18 07:31:09;;;;;;;0.70;0.70;;;;;;;22.80;43.26;100727.13;5254829;28;20115;-77
2023/06/18 07:33:59;;;;;;;1.05;0.80;;;;;;;22.97;42.72;100727.63;5253087;28;20055;-80
2023/06/18 07:36:50;;;;;;;0.60;0.60;;;;;;;22.99;42.33;100726.53;5251756;28;20049;-78
2023/06/18 07:39:41;;;;;;;0.82;0.60;;;;;;;23.08;42.10;100725.78;5229527;28;20024;-82
2023/06/18 07:42:32;;;;;;;3.25;1.90;;;;;;;23.16;41.94;100727.88;5244274;28;20032;-81
2023/06/18 07:45:23;;;;;;;0.73;0.73;;;;;;;23.05;42.90;100723.38;5242424;28;20040;-84
2023/06/18 07:48:14;;;;;;;1.10;1.00;;;;;;;23.20;41.88;100723.97;5252391;28;20448;-84
2023/06/18 07:51:05;;;;;;;1.05;1.05;;;;;;;23.25;42.17;100731.63;5252136;28;20036;-84
2023/06/18 07:53:56;;;;;;;0.95;0.88;;;;;;;23.37;41.85;100725.31;5229678;28;20516;-84
2023/06/18 07:56:47;;;;;;;1.65;0.70;;;;;;;23.43;43.35;100726.59;5223809;28;20558;-83
2023/06/18 07:59:38;;;;;;;0.50;0.50;;;;;;;23.50;41.34;100722.47;5240094;28;20035;-83
2023/06/18 08:02:29;;;;;;;1.02;0.82;;;;;;;23.58;42.20;100717.34;5220945;28;20040;-83
2023/06/18 08:05:20;;;;;;;0.77;0.77;;;;;;;23.66;41.97;100723.88;5235814;28;20767;-82
2023/06/18 08:08:11;;;;;;;0.82;0.80;;;;;;;23.79;42.50;100724.56;5263380;23;20040;-81
2023/06/18 08:11:02;;;;;;;0.50;0.50;;;;;;;23.87;41.99;100711.38;5174128;28;20500;-82
2023/06/18 08:13:53;;;;;;;9.10;1.63;;;;;;;23.88;41.82;100717.59;5171397;28;20034;-83
2023/06/18 08:16:44;;;;;;;0.30;0.30;;;;;;;23.99;41.83;100711.38;5164154;28;20076;-84
2023/06/18 08:19:35;;;;;;;0.75;0.75;;;;;;;24.03;41.75;100716.34;5170872;28;20735;-83
2023/06/18 08:22:26;;;;;;;0.65;0.65;;;;;;;24.07;42.09;100724.97;5158519;28;20076;-84
2023/06/18 08:25:16;;;;;;;0.80;0.80;;;;;;;24.03;41.13;100731.56;5165886;28;20044;-82
2023/06/18 08:28:07;;;;;;;0.60;0.60;;;;;;;24.09;40.38;100730.19;5145495;28;20676;-82
2023/06/18 08:30:58;;;;;;;1.73;1.25;;;;;;;24.14;40.19;100728.81;5171082;28;20037;-82
2023/06/18 08:33:50;;;;;;;1.60;1.17;;;;;;;24.15;40.09;100735.03;5159876;28;20539;-82
2023/06/18 08:36:40;;;;;;;0.38;0.38;;;;;;;24.12;40.64;100733.47;5170763;28;20152;-81
2023/06/18 08:39:31;;;;;;;1.05;1.05;;;;;;;24.22;41.32;100716.59;5170397;28;20112;-81
2023/06/18 08:42:22;;;;;;;0.50;0.50;;;;;;;24.23;39.90;100731.72;5150817;28;20037;-82
2023/06/18 08:45:13;;;;;;;0.52;0.52;;;;;;;24.19;40.09;100720.41;5165965;28;20699;-80
2023/06/18 08:48:07;;;;;;;0.68;0.68;;;;;;;24.26;38.88;100731.44;5178586;28;20104;-82
2023/06/18 08:51:03;;;;;;;1.17;1.15;;;;;;;24.21;39.16;100731.84;5146208;28;20049;-82
2023/06/18 08:54:18;;;;;;;0.75;0.75;;;;;;;24.24;39.70;100733.41;5148407;28;20091;-82
2023/06/18 08:57:31;;;;;;;0.47;0.47;;;;;;;24.37;39.33;100723.34;5148919;28;20499;-82
2023/06/18 09:00:22;;;;;;;1.08;0.88;;;;;;;24.36;39.47;100727.00;5164121;28;20096;-80
2023/06/18 09:03:13;;;;;;;0.47;0.47;;;;;;;24.46;38.66;100721.72;5173452;28;20049;-81
2023/06/18 09:06:05;;;;;;;0.95;0.80;;;;;;;24.52;37.76;100716.63;5171358;28;20033;-80
2023/06/18 09:12:19;;;;;;;0.60;0.60;;;;;;;24.74;37.43;100725.56;5177531;28;20426;-82
2023/06/18 09:15:10;;;;;;;2.63;1.33;;;;;;;24.71;37.38;100724.97;5144864;28;20034;-83
2023/06/18 09:18:08;;;;;;;1.27;0.57;;;;;;;24.82;37.47;100719.50;5158796;28;20346;-83
2023/06/18 09:20:58;;;;;;;0.57;0.57;;;;;;;24.83;36.64;100724.72;5144740;28;20046;-81
2023/06/18 09:23:55;;;;;;;0.40;0.40;;;;;;;24.87;35.87;100713.72;5152747;28;20034;-82
2023/06/18 09:27:02;;;;;;;1.13;0.55;;;;;;;24.93;35.83;100718.56;5148778;28;20724;-82
2023/06/18 09:29:53;;;;;;;0.68;0.68;;;;;;;24.89;34.87;100706.41;5163522;28;20550;-82
2023/06/18 09:32:47;;;;;;;1.02;0.93;;;;;;;24.95;35.83;100717.47;5174936;28;20434;-83
2023/06/18 09:35:38;;;;;;;0.68;0.52;;;;;;;25.01;34.84;100708.00;5148783;28;20038;-81
2023/06/18 09:38:33;;;;;;;0.52;0.52;;;;;;;24.96;35.67;100703.03;5178062;28;20030;-81
2023/06/18 09:41:27;;;;;;;2.00;1.48;;;;;;;25.13;35.61;100704.22;5172352;28;20095;-82
2023/06/18 09:44:22;;;;;;;0.75;0.75;;;;;;;25.12;35.58;100694.47;5166454;28;20067;-81
2023/06/18 09:47:14;;;;;;;0.35;0.35;;;;;;;25.14;34.74;100703.25;5172690;28;20123;-81
2023/06/18 09:50:06;;;;;;;0.57;0.57;;;;;;;25.20;34.78;100701.84;5161694;28;20052;-82
2023/06/18 09:52:57;;;;;;;1.05;0.95;;;;;;;25.24;34.92;100699.75;5172720;28;20461;-80
2023/06/18 09:55:48;;;;;;;0.70;0.70;;;;;;;25.26;34.84;100695.94;5159144;28;20044;-80
2023/06/18 09:58:42;;;;;;;0.38;0.38;;;;;;;25.32;34.52;100689.16;5168245;28;20089;-80
2023/06/18 10:01:46;;;;;;;;;;;;;;;25.30;33.85;100688.44;5165264;28;20030;-80
2023/06/18 10:04:37;;;;;;;0.47;0.47;;;;;;;25.32;34.08;100680.22;5175930;28;19944;-80
2023/06/18 10:07:29;;;;;;;0.50;0.50;;;;;;;25.38;35.15;100676.97;5163362;28;20034;-80
2023/06/18 10:10:20;;;;;;;0.30;0.30;;;;;;;25.61;35.30;100674.94;5176432;28;20045;-80
2023/06/18 10:13:12;;;;;;;0.50;0.50;;;;;;;25.59;34.40;100676.91;5175806;28;20030;-80
2023/06/18 10:16:04;;;;;;;0.47;0.45;;;;;;;25.67;33.61;100674.34;5181429;28;20034;-81
2023/06/18 10:19:05;;;;;;;0.57;0.55;;;;;;;25.82;34.94;100673.94;5181752;28;20484;-80
2023/06/18 10:21:59;;;;;;;0.93;0.85;;;;;;;25.93;33.99;100677.34;5156206;28;20038;-80
2023/06/18 10:25:04;;;;;;;0.60;0.60;;;;;;;25.97;32.82;100675.19;5154939;28;20038;-79
2023/06/18 10:27:55;;;;;;;0.77;0.77;;;;;;;26.05;33.19;100672.66;5182003;28;20488;-79
2023/06/18 10:30:46;;;;;;;1.25;0.82;;;;;;;26.19;32.47;100671.38;5170593;28;20101;-79
2023/06/18 10:33:37;;;;;;;0.93;0.55;;;;;;;26.28;32.26;100663.44;5166349;28;20110;-79
2023/06/18 10:36:28;;;;;;;1.15;0.88;;;;;;;26.34;31.54;100658.31;5177577;28;20057;-79
2023/06/18 10:39:20;;;;;;;0.43;0.43;;;;;;;26.39;32.58;100658.72;5166052;28;20121;-79
2023/06/18 10:42:13;;;;;;;0.52;0.43;;;;;;;26.43;32.88;100653.91;5163485;28;20042;-77
2023/06/18 10:45:14;;;;;;;3.47;1.35;;;;;;;26.62;33.82;100658.34;5166160;28;20030;-78
2023/06/18 10:48:16;;;;;;;0.60;0.60;;;;;;;26.66;33.90;100653.53;5180551;28;20040;-80
2023/06/18 10:51:27;;;;;;;1.23;0.75;;;;;;;26.62;32.19;100650.28;5166918;28;20049;-79
2023/06/18 10:54:38;;;;;;;0.45;0.45;;;;;;;26.65;33.22;100647.28;5161777;28;20034;-79
2023/06/18 10:57:29;;;;;;;0.35;0.35;;;;;;;26.65;31.95;100651.81;5179788;28;20100;-78
2023/06/18 11:00:25;;;;;;;0.65;0.50;;;;;;;26.78;32.04;100646.13;5178990;28;20172;-75
2023/06/18 11:03:17;;;;;;;3.15;1.02;;;;;;;26.67;33.48;100639.91;5160812;28;20049;-77
2023/06/18 11:06:11;;;;;;;0.77;0.50;;;;;;;26.70;32.92;100628.00;5169955;28;20042;-79
2023/06/18 11:09:01;;;;;;;0.30;0.30;;;;;;;26.75;33.39;100632.94;5170249;28;20227;-79
2023/06/18 11:11:53;;;;;;;0.70;0.70;;;;;;;26.88;33.25;100635.31;5176631;28;20053;-78
2023/06/18 11:15:03;;;;;;;1.60;0.80;;;;;;;26.83;33.22;100633.91;5153460;28;20030;-78
2023/06/18 11:17:57;;;;;;;0.50;0.50;;;;;;;26.95;32.65;100626.47;5168437;28;20050;-78
2023/06/18 11:20:49;;;;;;;0.50;0.50;;;;;;;27.00;33.24;100626.03;5153583;28;20534;-78
2023/06/18 11:23:41;;;;;;;0.73;0.73;;;;;;;26.95;33.48;100618.41;5159818;28;20131;-78
2023/06/18 11:26:32;;;;;;;0.30;0.30;;;;;;;27.00;32.91;100624.19;5163233;28;20034;-76
2023/06/18 11:29:24;;;;;;;0.60;0.60;;;;;;;27.10;32.44;100618.75;5179773;28;20084;-78
2023/06/18 11:32:16;;;;;;;0.50;0.50;;;;;;;27.15;33.08;100611.03;5171249;28;20456;-78
2023/06/18 11:35:08;;;;;;;2.05;1.65;;;;;;;27.24;33.30;100613.81;5158732;28;20097;-76
2023/06/18 11:37:59;;;;;;;0.30;0.30;;;;;;;27.39;32.45;100611.44;5163678;28;20030;-78
2023/06/18 11:40:52;;;;;;;0.80;0.80;;;;;;;27.37;32.67;100605.34;5175064;28;20044;-78
2023/06/18 11:43:46;;;;;;;1.20;0.85;;;;;;;27.40;32.29;100594.25;5165266;28;20022;-79
2023/06/18 11:46:37;;;;;;;1.98;1.38;;;;;;;27.43;32.09;100596.69;5162810;28;20068;-81
2023/06/18 11:49:28;;;;;;;0.60;0.60;;;;;;;27.34;32.06;100598.44;5177862;28;20483;-80
2023/06/18 11:52:21;;;;;;;0.50;0.50;;;;;;;27.47;31.70;100598.06;5150967;28;20034;-80
2023/06/18 11:55:13;;;;;;;0.40;0.40;;;;;;;27.36;31.29;100596.41;5149071;28;20137;-77
2023/06/18 11:58:05;;;;;;;11.50;1.77;;;;;;;27.33;32.40;100599.44;5155729;28;20043;-80
2023/06/18 12:00:59;;;;;;;2.88;1.35;;;;;;;27.38;32.23;100594.41;5155238;28;20049;-77
2023/06/18 12:03:50;;;;;;;0.50;0.50;;;;;;;27.33;32.57;100589.50;5161621;28;20026;-81
2023/06/18 12:06:41;;;;;;;0.40;0.40;;;;;;;27.34;32.34;100591.19;5154985;28;20077;-79
2023/06/18 12:09:36;;;;;;;2.83;0.93;;;;;;;27.44;32.41;100577.66;5153646;28;20463;-78
2023/06/18 12:12:32;;;;;;;2.15;1.42;;;;;;;27.34;31.62;100588.50;5152471;28;20045;-77
2023/06/18 12:15:39;;;;;;;0.50;0.50;;;;;;;27.38;32.38;100572.03;5152887;28;20065;-78
2023/06/18 12:18:34;;;;;;;1.48;0.80;;;;;;;27.23;32.03;100580.63;5177790;28;20042;-78
2023/06/18 12:21:25;;;;;;;0.65;0.60;;;;;;;27.29;32.12;100569.28;5162483;28;20041;-77
2023/06/18 12:24:16;;;;;;;1.00;0.82;;;;;;;27.34;31.83;100563.41;5151431;28;20118;-77
2023/06/18 12:27:07;;;;;;;0.60;0.60;;;;;;;27.24;31.99;100559.97;5164576;28;20049;-78
2023/06/18 12:30:08;;;;;;;1.20;0.77;;;;;;;27.18;31.66;100550.66;5162506;28;20124;-78
2023/06/18 12:33:10;;;;;;;0.55;0.55;;;;;;;26.95;32.33;100561.88;5168558;28;20029;-78
2023/06/18 12:36:02;;;;;;;3.15;1.05;;;;;;;26.92;32.05;100556.78;5179390;28;20034;-80
2023/06/18 12:38:53;;;;;;;0.60;0.60;;;;;;;27.00;32.47;100548.78;5161903;28;20037;-79
2023/06/18 12:41:44;;;;;;;0.40;0.40;;;;;;;27.06;32.75;100557.28;5181022;28;20497;-77
2023/06/18 12:44:35;;;;;;;0.98;0.98;;;;;;;26.99;32.77;100552.47;5169502;28;20026;-78
2023/06/18 12:47:26;;;;;;;2.03;0.65;;;;;;;26.95;32.75;100544.88;5169967;28;20046;-80
2023/06/18 12:50:38;;;;;;;0.50;0.50;;;;;;;27.04;33.25;100537.72;5168378;28;20050;-78
2023/06/18 12:53:30;;;;;;;0.40;0.40;;;;;;;27.02;32.85;100535.19;5179185;28;20405;-81
2023/06/18 12:56:22;;;;;;;0.70;0.70;;;;;;;27.00;33.14;100543.41;5162655;28;20292;-80
2023/06/18 12:59:17;;;;;;;1.38;0.90;;;;;;;27.02;33.23;100533.34;5166562;28;20053;-78
2023/06/18 13:02:08;;;;;;;0.45;0.45;;;;;;;27.01;33.24;100533.50;5177846;28;20034;-80
2023/06/18 13:04:59;;;;;;;0.77;0.77;;;;;;;26.94;32.96;100530.56;5160297;28;20525;-81
2023/06/18 13:07:52;;;;;;;2.03;1.48;;;;;;;26.95;32.88;100529.56;5171287;28;20406;-79
2023/06/18 13:10:47;;;;;;;0.85;0.82;;;;;;;26.96;33.46;100525.88;5201145;28;20022;-80
2023/06/18 13:13:38;;;;;;;0.38;0.38;;;;;;;26.96;33.39;100519.63;5192864;28;20022;-78
2023/06/18 13:16:29;;;;;;;2.97;0.60;;;;;;;27.06;32.88;100516.88;5169301;28;20056;-79
2023/06/18 13:19:20;;;;;;;1.45;1.05;;;;;;;26.92;33.01;100516.41;5190458;28;20026;-78
2023/06/18 13:22:11;;;;;;;0.57;0.47;;;;;;;26.91;33.21;100506.63;5250025;23;20050;-80
2023/06/18 13:25:06;;;;;;;2.30;1.05;;;;;;;26.95;32.78;100505.34;5229394;28;20033;-81